sensor_id;sensor_type;location;lat;lon;timestamp;P1;durP1;ratioP1;P2;durP2;ratioP2
22525;SDS011;11429;50.842;4.386;2023-10-13T00:02:11;27.58;;;19.48;;
22525;SDS011;11429;50.842;4.386;2023-10-13T00:04:39;28.45;;;20.48;;
22525;SDS011;11429;50.842;4.386;2023-10-13T00:07:05;27.80;;;20.15;;
22525;SDS011;11429;50.842;4.386;2023-10-13T00:09:34;28.08;;;20.45;;
22525;SDS011;11429;50.842;4.386;2023-10-13T00:12:03;30.40;;;20.77;;
22525;SDS011;11429;50.842;4.386;2023-10-13T00:14:38;31.30;;;20.92;;
22525;SDS011;11429;50.842;4.386;2023-10-13T00:17:06;28.05;;;21.08;;
22525;SDS011;11429;50.842;4.386;2023-10-13T00:19:34;29.52;;;20.90;;
22525;SDS011;11429;50.842;4.386;2023-10-13T00:22:09;24.17;;;20.17;;
22525;SDS011;11429;50.842;4.386;2023-10-13T00:24:38;33.17;;;21.83;;
22525;SDS011;11429;50.842;4.386;2023-10-13T00:27:15;29.95;;;21.90;;
22525;SDS011;11429;50.842;4.386;2023-10-13T00:29:54;34.28;;;21.17;;
22525;SDS011;11429;50.842;4.386;2023-10-13T00:32:42;29.48;;;21.30;;
22525;SDS011;11429;50.842;4.386;2023-10-13T00:35:10;29.33;;;20.67;;
22525;SDS011;11429;50.842;4.386;2023-10-13T00:37:38;29.40;;;21.23;;
22525;SDS011;11429;50.842;4.386;2023-10-13T00:40:10;36.65;;;23.00;;
22525;SDS011;11429;50.842;4.386;2023-10-13T00:42:57;27.98;;;21.45;;
22525;SDS011;11429;50.842;4.386;2023-10-13T00:48:19;35.67;;;24.20;;
22525;SDS011;11429;50.842;4.386;2023-10-13T00:51:05;35.30;;;24.10;;
22525;SDS011;11429;50.842;4.386;2023-10-13T00:53:35;35.10;;;24.77;;
22525;SDS011;11429;50.842;4.386;2023-10-13T00:56:05;37.10;;;24.08;;
22525;SDS011;11429;50.842;4.386;2023-10-13T00:58:36;41.30;;;25.27;;
22525;SDS011;11429;50.842;4.386;2023-10-13T01:01:05;38.95;;;24.75;;
22525;SDS011;11429;50.842;4.386;2023-10-13T01:03:52;37.05;;;25.10;;
22525;SDS011;11429;50.842;4.386;2023-10-13T01:06:20;39.75;;;26.23;;
22525;SDS011;11429;50.842;4.386;2023-10-13T01:08:56;35.63;;;24.60;;
22525;SDS011;11429;50.842;4.386;2023-10-13T01:11:45;39.88;;;26.25;;
22525;SDS011;11429;50.842;4.386;2023-10-13T01:14:17;40.55;;;26.25;;
22525;SDS011;11429;50.842;4.386;2023-10-13T01:16:47;37.67;;;26.20;;
22525;SDS011;11429;50.842;4.386;2023-10-13T01:19:17;40.53;;;26.05;;
22525;SDS011;11429;50.842;4.386;2023-10-13T01:21:45;40.17;;;26.02;;
22525;SDS011;11429;50.842;4.386;2023-10-13T01:24:14;38.65;;;26.10;;
22525;SDS011;11429;50.842;4.386;2023-10-13T01:26:42;37.22;;;25.33;;
22525;SDS011;11429;50.842;4.386;2023-10-13T01:29:08;39.80;;;27.02;;
22525;SDS011;11429;50.842;4.386;2023-10-13T01:31:40;39.75;;;25.08;;
22525;SDS011;11429;50.842;4.386;2023-10-13T01:34:16;33.90;;;23.63;;
22525;SDS011;11429;50.842;4.386;2023-10-13T01:36:52;33.65;;;24.08;;
22525;SDS011;11429;50.842;4.386;2023-10-13T01:39:19;38.10;;;23.60;;
22525;SDS011;11429;50.842;4.386;2023-10-13T01:41:46;31.90;;;21.40;;
22525;SDS011;11429;50.842;4.386;2023-10-13T01:44:20;30.98;;;22.10;;
22525;SDS011;11429;50.842;4.386;2023-10-13T01:46:53;33.10;;;21.65;;
22525;SDS011;11429;50.842;4.386;2023-10-13T01:49:19;28.23;;;20.58;;
22525;SDS011;11429;50.842;4.386;2023-10-13T01:51:46;27.08;;;21.05;;
22525;SDS011;11429;50.842;4.386;2023-10-13T01:54:12;29.27;;;19.70;;
22525;SDS011;11429;50.842;4.386;2023-10-13T01:56:40;28.67;;;19.40;;
22525;SDS011;11429;50.842;4.386;2023-10-13T01:59:12;26.15;;;18.42;;
22525;SDS011;11429;50.842;4.386;2023-10-13T02:01:38;27.02;;;18.60;;
22525;SDS011;11429;50.842;4.386;2023-10-13T02:04:06;25.52;;;18.08;;
22525;SDS011;11429;50.842;4.386;2023-10-13T02:06:35;28.98;;;18.20;;
22525;SDS011;11429;50.842;4.386;2023-10-13T02:09:02;29.05;;;18.02;;
22525;SDS011;11429;50.842;4.386;2023-10-13T02:11:51;31.85;;;17.48;;
22525;SDS011;11429;50.842;4.386;2023-10-13T02:14:20;25.70;;;17.45;;
22525;SDS011;11429;50.842;4.386;2023-10-13T02:16:47;28.75;;;17.85;;
22525;SDS011;11429;50.842;4.386;2023-10-13T02:19:20;25.40;;;17.25;;
22525;SDS011;11429;50.842;4.386;2023-10-13T02:21:47;26.83;;;17.00;;
22525;SDS011;11429;50.842;4.386;2023-10-13T02:24:23;24.70;;;16.45;;
22525;SDS011;11429;50.842;4.386;2023-10-13T02:26:54;25.33;;;16.13;;
22525;SDS011;11429;50.842;4.386;2023-10-13T02:29:30;22.88;;;15.38;;
22525;SDS011;11429;50.842;4.386;2023-10-13T02:31:56;28.45;;;15.73;;
22525;SDS011;11429;50.842;4.386;2023-10-13T02:34:22;25.15;;;14.75;;
22525;SDS011;11429;50.842;4.386;2023-10-13T02:36:48;27.77;;;15.10;;
22525;SDS011;11429;50.842;4.386;2023-10-13T02:39:18;23.15;;;14.55;;
22525;SDS011;11429;50.842;4.386;2023-10-13T02:41:51;21.35;;;13.43;;
22525;SDS011;11429;50.842;4.386;2023-10-13T02:44:20;22.40;;;13.85;;
22525;SDS011;11429;50.842;4.386;2023-10-13T02:49:22;22.33;;;14.43;;
22525;SDS011;11429;50.842;4.386;2023-10-13T02:51:52;23.13;;;14.38;;
22525;SDS011;11429;50.842;4.386;2023-10-13T02:54:20;23.15;;;13.73;;
22525;SDS011;11429;50.842;4.386;2023-10-13T02:56:46;20.60;;;14.68;;
22525;SDS011;11429;50.842;4.386;2023-10-13T02:59:22;26.38;;;14.93;;
22525;SDS011;11429;50.842;4.386;2023-10-13T03:02:11;21.73;;;14.73;;
22525;SDS011;11429;50.842;4.386;2023-10-13T03:04:57;25.08;;;14.90;;
22525;SDS011;11429;50.842;4.386;2023-10-13T03:07:34;19.42;;;13.05;;
22525;SDS011;11429;50.842;4.386;2023-10-13T03:10:03;22.50;;;13.88;;
22525;SDS011;11429;50.842;4.386;2023-10-13T03:12:35;21.95;;;14.30;;
22525;SDS011;11429;50.842;4.386;2023-10-13T03:15:02;24.25;;;13.88;;
22525;SDS011;11429;50.842;4.386;2023-10-13T03:17:40;21.75;;;13.07;;
22525;SDS011;11429;50.842;4.386;2023-10-13T03:20:12;21.15;;;14.13;;
22525;SDS011;11429;50.842;4.386;2023-10-13T03:22:41;19.70;;;12.75;;
22525;SDS011;11429;50.842;4.386;2023-10-13T03:25:13;20.50;;;13.50;;
22525;SDS011;11429;50.842;4.386;2023-10-13T03:27:48;19.70;;;12.88;;
22525;SDS011;11429;50.842;4.386;2023-10-13T03:30:17;25.17;;;13.27;;
22525;SDS011;11429;50.842;4.386;2023-10-13T03:32:45;22.60;;;13.07;;
22525;SDS011;11429;50.842;4.386;2023-10-13T03:35:13;22.55;;;12.68;;
22525;SDS011;11429;50.842;4.386;2023-10-13T03:37:49;24.10;;;12.63;;
22525;SDS011;11429;50.842;4.386;2023-10-13T03:40:15;22.67;;;13.40;;
22525;SDS011;11429;50.842;4.386;2023-10-13T03:42:59;27.67;;;13.77;;
22525;SDS011;11429;50.842;4.386;2023-10-13T03:45:40;22.25;;;12.65;;
22525;SDS011;11429;50.842;4.386;2023-10-13T03:48:17;23.83;;;12.18;;
22525;SDS011;11429;50.842;4.386;2023-10-13T03:51:06;20.85;;;13.05;;
22525;SDS011;11429;50.842;4.386;2023-10-13T03:53:33;18.95;;;12.70;;
22525;SDS011;11429;50.842;4.386;2023-10-13T03:56:00;22.88;;;13.20;;
22525;SDS011;11429;50.842;4.386;2023-10-13T03:58:51;21.55;;;12.77;;
22525;SDS011;11429;50.842;4.386;2023-10-13T04:01:19;24.88;;;12.82;;
22525;SDS011;11429;50.842;4.386;2023-10-13T04:03:55;19.63;;;11.63;;
22525;SDS011;11429;50.842;4.386;2023-10-13T04:06:25;21.38;;;11.52;;
22525;SDS011;11429;50.842;4.386;2023-10-13T04:09:20;22.02;;;11.90;;
22525;SDS011;11429;50.842;4.386;2023-10-13T04:11:58;18.25;;;11.13;;
22525;SDS011;11429;50.842;4.386;2023-10-13T04:14:34;25.27;;;11.43;;
22525;SDS011;11429;50.842;4.386;2023-10-13T04:17:10;21.10;;;11.90;;
22525;SDS011;11429;50.842;4.386;2023-10-13T04:19:42;18.95;;;11.23;;
22525;SDS011;11429;50.842;4.386;2023-10-13T04:22:27;20.27;;;11.10;;
22525;SDS011;11429;50.842;4.386;2023-10-13T04:25:17;20.02;;;11.15;;
22525;SDS011;11429;50.842;4.386;2023-10-13T04:28:06;17.08;;;10.45;;
22525;SDS011;11429;50.842;4.386;2023-10-13T04:33:26;20.45;;;10.20;;
22525;SDS011;11429;50.842;4.386;2023-10-13T04:36:04;24.35;;;12.02;;
22525;SDS011;11429;50.842;4.386;2023-10-13T04:38:47;21.48;;;10.63;;
22525;SDS011;11429;50.842;4.386;2023-10-13T04:41:30;18.15;;;10.00;;
22525;SDS011;11429;50.842;4.386;2023-10-13T04:44:06;20.35;;;10.40;;
22525;SDS011;11429;50.842;4.386;2023-10-13T04:46:58;17.02;;;8.93;;
22525;SDS011;11429;50.842;4.386;2023-10-13T04:49:25;17.10;;;10.13;;
22525;SDS011;11429;50.842;4.386;2023-10-13T04:51:52;21.60;;;11.15;;
22525;SDS011;11429;50.842;4.386;2023-10-13T04:54:28;16.35;;;10.20;;
22525;SDS011;11429;50.842;4.386;2023-10-13T04:57:12;23.25;;;11.15;;
22525;SDS011;11429;50.842;4.386;2023-10-13T05:00:12;21.15;;;11.48;;
22525;SDS011;11429;50.842;4.386;2023-10-13T05:02:45;22.30;;;10.27;;
22525;SDS011;11429;50.842;4.386;2023-10-13T05:05:21;20.80;;;11.60;;
22525;SDS011;11429;50.842;4.386;2023-10-13T05:08:07;20.90;;;10.77;;
22525;SDS011;11429;50.842;4.386;2023-10-13T05:10:51;21.63;;;9.95;;
22525;SDS011;11429;50.842;4.386;2023-10-13T05:13:35;19.13;;;9.77;;
22525;SDS011;11429;50.842;4.386;2023-10-13T05:16:19;20.45;;;10.27;;
22525;SDS011;11429;50.842;4.386;2023-10-13T05:19:03;19.17;;;9.07;;
22525;SDS011;11429;50.842;4.386;2023-10-13T05:21:47;19.70;;;9.25;;
22525;SDS011;11429;50.842;4.386;2023-10-13T05:24:31;19.85;;;9.10;;
22525;SDS011;11429;50.842;4.386;2023-10-13T05:27:15;22.83;;;8.63;;
22525;SDS011;11429;50.842;4.386;2023-10-13T05:29:59;17.23;;;9.05;;
22525;SDS011;11429;50.842;4.386;2023-10-13T05:32:44;19.45;;;8.40;;
22525;SDS011;11429;50.842;4.386;2023-10-13T05:35:30;16.52;;;8.65;;
22525;SDS011;11429;50.842;4.386;2023-10-13T05:38:14;20.02;;;8.73;;
22525;SDS011;11429;50.842;4.386;2023-10-13T05:41:04;19.67;;;8.20;;
22525;SDS011;11429;50.842;4.386;2023-10-13T05:43:49;22.50;;;8.90;;
22525;SDS011;11429;50.842;4.386;2023-10-13T05:46:33;21.95;;;9.00;;
22525;SDS011;11429;50.842;4.386;2023-10-13T05:49:02;21.92;;;8.13;;
22525;SDS011;11429;50.842;4.386;2023-10-13T05:51:41;19.95;;;8.45;;
22525;SDS011;11429;50.842;4.386;2023-10-13T05:54:24;16.25;;;8.18;;
22525;SDS011;11429;50.842;4.386;2023-10-13T05:57:09;17.50;;;8.60;;
22525;SDS011;11429;50.842;4.386;2023-10-13T05:59:53;14.00;;;7.45;;
22525;SDS011;11429;50.842;4.386;2023-10-13T06:02:37;17.05;;;6.95;;
22525;SDS011;11429;50.842;4.386;2023-10-13T06:05:21;18.15;;;8.05;;
22525;SDS011;11429;50.842;4.386;2023-10-13T06:08:05;18.67;;;8.15;;
22525;SDS011;11429;50.842;4.386;2023-10-13T06:10:49;17.30;;;8.23;;
22525;SDS011;11429;50.842;4.386;2023-10-13T06:13:33;15.60;;;7.40;;
22525;SDS011;11429;50.842;4.386;2023-10-13T06:16:17;15.40;;;7.28;;
22525;SDS011;11429;50.842;4.386;2023-10-13T06:19:02;23.35;;;8.60;;
22525;SDS011;11429;50.842;4.386;2023-10-13T06:21:46;17.35;;;7.25;;
22525;SDS011;11429;50.842;4.386;2023-10-13T06:24:31;13.82;;;7.45;;
22525;SDS011;11429;50.842;4.386;2023-10-13T06:27:15;18.83;;;7.40;;
22525;SDS011;11429;50.842;4.386;2023-10-13T06:30:01;13.20;;;6.90;;
22525;SDS011;11429;50.842;4.386;2023-10-13T06:32:29;17.00;;;6.68;;
22525;SDS011;11429;50.842;4.386;2023-10-13T06:34:56;15.15;;;8.07;;
22525;SDS011;11429;50.842;4.386;2023-10-13T06:37:32;14.02;;;7.55;;
22525;SDS011;11429;50.842;4.386;2023-10-13T06:40:08;15.90;;;7.13;;
22525;SDS011;11429;50.842;4.386;2023-10-13T06:42:50;15.90;;;7.18;;
22525;SDS011;11429;50.842;4.386;2023-10-13T06:45:18;15.55;;;6.82;;
22525;SDS011;11429;50.842;4.386;2023-10-13T06:47:46;12.40;;;6.78;;
22525;SDS011;11429;50.842;4.386;2023-10-13T06:50:14;13.38;;;6.65;;
22525;SDS011;11429;50.842;4.386;2023-10-13T06:52:44;15.50;;;6.78;;
22525;SDS011;11429;50.842;4.386;2023-10-13T06:55:13;14.00;;;7.07;;
22525;SDS011;11429;50.842;4.386;2023-10-13T06:57:53;13.05;;;6.60;;
22525;SDS011;11429;50.842;4.386;2023-10-13T07:00:24;16.73;;;7.13;;
22525;SDS011;11429;50.842;4.386;2023-10-13T07:02:54;15.82;;;6.30;;
22525;SDS011;11429;50.842;4.386;2023-10-13T07:05:30;17.98;;;7.13;;
22525;SDS011;11429;50.842;4.386;2023-10-13T07:08:06;14.13;;;6.97;;
22525;SDS011;11429;50.842;4.386;2023-10-13T07:10:34;13.40;;;5.93;;
22525;SDS011;11429;50.842;4.386;2023-10-13T07:13:26;14.77;;;6.78;;
22525;SDS011;11429;50.842;4.386;2023-10-13T07:15:53;11.55;;;6.32;;
22525;SDS011;11429;50.842;4.386;2023-10-13T07:18:25;16.63;;;7.05;;
22525;SDS011;11429;50.842;4.386;2023-10-13T07:20:51;17.20;;;7.15;;
22525;SDS011;11429;50.842;4.386;2023-10-13T07:23:22;19.67;;;6.50;;
22525;SDS011;11429;50.842;4.386;2023-10-13T07:25:53;12.90;;;6.32;;
22525;SDS011;11429;50.842;4.386;2023-10-13T07:28:20;12.75;;;5.97;;
22525;SDS011;11429;50.842;4.386;2023-10-13T07:30:47;16.45;;;6.53;;
22525;SDS011;11429;50.842;4.386;2023-10-13T07:33:16;12.32;;;6.53;;
22525;SDS011;11429;50.842;4.386;2023-10-13T07:35:45;14.88;;;7.03;;
22525;SDS011;11429;50.842;4.386;2023-10-13T07:38:16;17.00;;;6.97;;
22525;SDS011;11429;50.842;4.386;2023-10-13T07:40:46;18.40;;;7.35;;
22525;SDS011;11429;50.842;4.386;2023-10-13T07:43:17;14.40;;;6.57;;
22525;SDS011;11429;50.842;4.386;2023-10-13T07:45:46;14.80;;;6.80;;
22525;SDS011;11429;50.842;4.386;2023-10-13T07:48:23;20.08;;;7.40;;
22525;SDS011;11429;50.842;4.386;2023-10-13T07:53:30;17.75;;;7.03;;
22525;SDS011;11429;50.842;4.386;2023-10-13T07:56:14;13.67;;;5.57;;
22525;SDS011;11429;50.842;4.386;2023-10-13T07:58:43;18.33;;;6.40;;
22525;SDS011;11429;50.842;4.386;2023-10-13T08:01:18;19.08;;;5.95;;
22525;SDS011;11429;50.842;4.386;2023-10-13T08:03:44;15.90;;;6.30;;
22525;SDS011;11429;50.842;4.386;2023-10-13T08:06:12;14.13;;;6.57;;
22525;SDS011;11429;50.842;4.386;2023-10-13T08:08:41;15.63;;;6.57;;
22525;SDS011;11429;50.842;4.386;2023-10-13T08:11:09;13.55;;;6.50;;
22525;SDS011;11429;50.842;4.386;2023-10-13T08:13:50;10.80;;;5.57;;
22525;SDS011;11429;50.842;4.386;2023-10-13T08:16:21;15.65;;;7.28;;
22525;SDS011;11429;50.842;4.386;2023-10-13T08:19:10;17.00;;;6.30;;
22525;SDS011;11429;50.842;4.386;2023-10-13T08:21:40;12.13;;;5.95;;
22525;SDS011;11429;50.842;4.386;2023-10-13T08:24:39;18.33;;;6.53;;
22525;SDS011;11429;50.842;4.386;2023-10-13T08:27:06;14.02;;;6.38;;
22525;SDS011;11429;50.842;4.386;2023-10-13T08:29:45;15.98;;;5.72;;
22525;SDS011;11429;50.842;4.386;2023-10-13T08:32:24;15.85;;;6.30;;
22525;SDS011;11429;50.842;4.386;2023-10-13T08:34:54;14.55;;;6.15;;
22525;SDS011;11429;50.842;4.386;2023-10-13T08:37:21;12.63;;;6.15;;
22525;SDS011;11429;50.842;4.386;2023-10-13T08:39:47;14.00;;;5.88;;
22525;SDS011;11429;50.842;4.386;2023-10-13T08:45:12;18.88;;;7.03;;
22525;SDS011;11429;50.842;4.386;2023-10-13T08:47:48;13.88;;;5.78;;
22525;SDS011;11429;50.842;4.386;2023-10-13T08:53:13;17.70;;;6.43;;
22525;SDS011;11429;50.842;4.386;2023-10-13T08:56:10;10.70;;;6.30;;
22525;SDS011;11429;50.842;4.386;2023-10-13T08:58:44;14.60;;;6.10;;
22525;SDS011;11429;50.842;4.386;2023-10-13T09:01:27;11.48;;;6.25;;
22525;SDS011;11429;50.842;4.386;2023-10-13T09:04:13;18.92;;;7.25;;
22525;SDS011;11429;50.842;4.386;2023-10-13T09:06:44;14.88;;;6.68;;
22525;SDS011;11429;50.842;4.386;2023-10-13T09:09:44;14.68;;;6.40;;
22525;SDS011;11429;50.842;4.386;2023-10-13T09:12:12;11.95;;;7.05;;
22525;SDS011;11429;50.842;4.386;2023-10-13T09:14:54;15.00;;;6.70;;
22525;SDS011;11429;50.842;4.386;2023-10-13T09:17:29;16.23;;;7.05;;
22525;SDS011;11429;50.842;4.386;2023-10-13T09:19:58;15.27;;;6.90;;
22525;SDS011;11429;50.842;4.386;2023-10-13T09:22:44;12.15;;;6.68;;
22525;SDS011;11429;50.842;4.386;2023-10-13T09:25:21;18.25;;;6.38;;
22525;SDS011;11429;50.842;4.386;2023-10-13T09:27:48;12.55;;;7.25;;
22525;SDS011;11429;50.842;4.386;2023-10-13T09:30:18;12.50;;;7.00;;
22525;SDS011;11429;50.842;4.386;2023-10-13T09:32:58;15.13;;;7.05;;
22525;SDS011;11429;50.842;4.386;2023-10-13T09:35:26;14.35;;;7.35;;
22525;SDS011;11429;50.842;4.386;2023-10-13T09:37:53;13.57;;;6.45;;
22525;SDS011;11429;50.842;4.386;2023-10-13T09:40:22;15.30;;;7.93;;
22525;SDS011;11429;50.842;4.386;2023-10-13T09:43:11;12.35;;;6.75;;
22525;SDS011;11429;50.842;4.386;2023-10-13T09:45:43;12.40;;;7.05;;
22525;SDS011;11429;50.842;4.386;2023-10-13T09:48:33;15.20;;;7.43;;
22525;SDS011;11429;50.842;4.386;2023-10-13T09:51:04;16.77;;;7.15;;
22525;SDS011;11429;50.842;4.386;2023-10-13T09:53:34;14.05;;;7.35;;
22525;SDS011;11429;50.842;4.386;2023-10-13T09:58:42;10.80;;;7.38;;
22525;SDS011;11429;50.842;4.386;2023-10-13T10:01:22;16.70;;;7.60;;
22525;SDS011;11429;50.842;4.386;2023-10-13T10:04:13;15.27;;;7.47;;
22525;SDS011;11429;50.842;4.386;2023-10-13T10:09:44;12.93;;;6.90;;
22525;SDS011;11429;50.842;4.386;2023-10-13T10:17:59;16.88;;;7.00;;
22525;SDS011;11429;50.842;4.386;2023-10-13T10:23:25;11.48;;;6.72;;
22525;SDS011;11429;50.842;4.386;2023-10-13T10:25:56;17.95;;;6.97;;
22525;SDS011;11429;50.842;4.386;2023-10-13T10:28:37;20.23;;;7.40;;
22525;SDS011;11429;50.842;4.386;2023-10-13T10:31:06;16.15;;;6.90;;
22525;SDS011;11429;50.842;4.386;2023-10-13T10:33:34;17.27;;;7.00;;
22525;SDS011;11429;50.842;4.386;2023-10-13T10:36:01;18.48;;;7.03;;
22525;SDS011;11429;50.842;4.386;2023-10-13T10:38:26;13.18;;;7.18;;
22525;SDS011;11429;50.842;4.386;2023-10-13T10:40:57;19.38;;;7.38;;
22525;SDS011;11429;50.842;4.386;2023-10-13T10:43:38;17.95;;;7.22;;
22525;SDS011;11429;50.842;4.386;2023-10-13T10:48:41;17.08;;;7.93;;
22525;SDS011;11429;50.842;4.386;2023-10-13T10:51:10;22.92;;;7.40;;
22525;SDS011;11429;50.842;4.386;2023-10-13T10:53:50;15.70;;;7.82;;
22525;SDS011;11429;50.842;4.386;2023-10-13T10:56:22;18.23;;;7.57;;
22525;SDS011;11429;50.842;4.386;2023-10-13T10:59:01;19.65;;;7.05;;
22525;SDS011;11429;50.842;4.386;2023-10-13T11:01:43;14.02;;;7.45;;
22525;SDS011;11429;50.842;4.386;2023-10-13T11:04:13;26.65;;;11.70;;
22525;SDS011;11429;50.842;4.386;2023-10-13T11:06:50;27.08;;;8.55;;
22525;SDS011;11429;50.842;4.386;2023-10-13T11:09:26;20.70;;;8.35;;
22525;SDS011;11429;50.842;4.386;2023-10-13T11:11:56;15.85;;;8.00;;
22525;SDS011;11429;50.842;4.386;2023-10-13T11:14:48;15.88;;;7.53;;
22525;SDS011;11429;50.842;4.386;2023-10-13T11:17:25;18.70;;;7.40;;
22525;SDS011;11429;50.842;4.386;2023-10-13T11:20:10;20.10;;;7.40;;
22525;SDS011;11429;50.842;4.386;2023-10-13T11:22:47;15.93;;;7.65;;
22525;SDS011;11429;50.842;4.386;2023-10-13T11:27:54;18.30;;;7.85;;
22525;SDS011;11429;50.842;4.386;2023-10-13T11:30:22;17.85;;;7.70;;
22525;SDS011;11429;50.842;4.386;2023-10-13T11:33:06;17.20;;;7.45;;
22525;SDS011;11429;50.842;4.386;2023-10-13T11:35:34;19.40;;;6.63;;
22525;SDS011;11429;50.842;4.386;2023-10-13T11:38:28;18.08;;;7.05;;
22525;SDS011;11429;50.842;4.386;2023-10-13T11:49:08;17.80;;;7.05;;
22525;SDS011;11429;50.842;4.386;2023-10-13T11:51:42;19.10;;;6.70;;
22525;SDS011;11429;50.842;4.386;2023-10-13T11:54:12;17.77;;;6.93;;
22525;SDS011;11429;50.842;4.386;2023-10-13T11:56:40;12.98;;;7.13;;
22525;SDS011;11429;50.842;4.386;2023-10-13T11:59:06;17.20;;;7.35;;
22525;SDS011;11429;50.842;4.386;2023-10-13T12:01:41;16.27;;;6.35;;
22525;SDS011;11429;50.842;4.386;2023-10-13T12:04:26;15.05;;;6.68;;
22525;SDS011;11429;50.842;4.386;2023-10-13T12:07:11;18.83;;;7.00;;
22525;SDS011;11429;50.842;4.386;2023-10-13T12:09:40;14.75;;;6.07;;
22525;SDS011;11429;50.842;4.386;2023-10-13T12:14:51;17.20;;;6.75;;
22525;SDS011;11429;50.842;4.386;2023-10-13T12:17:20;14.07;;;6.55;;
22525;SDS011;11429;50.842;4.386;2023-10-13T12:19:56;13.10;;;6.07;;
22525;SDS011;11429;50.842;4.386;2023-10-13T12:22:23;14.10;;;6.13;;
22525;SDS011;11429;50.842;4.386;2023-10-13T12:24:56;14.75;;;6.35;;
22525;SDS011;11429;50.842;4.386;2023-10-13T12:27:22;14.05;;;6.07;;
22525;SDS011;11429;50.842;4.386;2023-10-13T12:30:00;15.75;;;6.97;;
22525;SDS011;11429;50.842;4.386;2023-10-13T12:32:32;16.27;;;6.72;;
22525;SDS011;11429;50.842;4.386;2023-10-13T12:34:59;16.70;;;6.07;;
22525;SDS011;11429;50.842;4.386;2023-10-13T12:37:45;13.40;;;6.20;;
22525;SDS011;11429;50.842;4.386;2023-10-13T12:40:14;15.07;;;6.57;;
22525;SDS011;11429;50.842;4.386;2023-10-13T12:43:03;16.80;;;6.40;;
22525;SDS011;11429;50.842;4.386;2023-10-13T12:45:49;13.80;;;6.47;;
22525;SDS011;11429;50.842;4.386;2023-10-13T12:48:35;19.17;;;6.50;;
22525;SDS011;11429;50.842;4.386;2023-10-13T12:51:20;16.75;;;6.63;;
22525;SDS011;11429;50.842;4.386;2023-10-13T12:53:58;16.77;;;6.78;;
22525;SDS011;11429;50.842;4.386;2023-10-13T12:56:38;17.02;;;6.10;;
22525;SDS011;11429;50.842;4.386;2023-10-13T12:59:07;14.35;;;7.10;;
22525;SDS011;11429;50.842;4.386;2023-10-13T13:01:34;14.60;;;6.50;;
22525;SDS011;11429;50.842;4.386;2023-10-13T13:04:00;16.73;;;7.00;;
22525;SDS011;11429;50.842;4.386;2023-10-13T13:06:28;10.50;;;5.78;;
22525;SDS011;11429;50.842;4.386;2023-10-13T13:08:56;16.65;;;6.60;;
22525;SDS011;11429;50.842;4.386;2023-10-13T13:11:23;13.77;;;5.72;;
22525;SDS011;11429;50.842;4.386;2023-10-13T13:13:50;20.92;;;5.85;;
22525;SDS011;11429;50.842;4.386;2023-10-13T13:16:17;14.85;;;6.55;;
22525;SDS011;11429;50.842;4.386;2023-10-13T13:18:44;13.20;;;5.80;;
22525;SDS011;11429;50.842;4.386;2023-10-13T13:21:10;17.70;;;6.20;;
22525;SDS011;11429;50.842;4.386;2023-10-13T13:23:48;14.23;;;6.07;;
22525;SDS011;11429;50.842;4.386;2023-10-13T13:26:14;13.55;;;6.32;;
22525;SDS011;11429;50.842;4.386;2023-10-13T13:28:45;13.40;;;5.95;;
22525;SDS011;11429;50.842;4.386;2023-10-13T13:31:17;11.07;;;5.95;;
22525;SDS011;11429;50.842;4.386;2023-10-13T13:33:43;15.63;;;5.75;;
22525;SDS011;11429;50.842;4.386;2023-10-13T13:36:09;13.18;;;6.18;;
22525;SDS011;11429;50.842;4.386;2023-10-13T13:38:41;13.18;;;6.55;;
22525;SDS011;11429;50.842;4.386;2023-10-13T13:41:11;11.23;;;5.20;;
22525;SDS011;11429;50.842;4.386;2023-10-13T13:43:40;9.82;;;5.50;;
22525;SDS011;11429;50.842;4.386;2023-10-13T13:46:19;12.75;;;6.07;;
22525;SDS011;11429;50.842;4.386;2023-10-13T13:48:49;11.93;;;5.78;;
22525;SDS011;11429;50.842;4.386;2023-10-13T13:51:24;13.50;;;5.25;;
22525;SDS011;11429;50.842;4.386;2023-10-13T13:53:54;11.63;;;5.72;;
22525;SDS011;11429;50.842;4.386;2023-10-13T13:56:21;14.30;;;6.32;;
22525;SDS011;11429;50.842;4.386;2023-10-13T13:58:50;14.40;;;5.80;;
22525;SDS011;11429;50.842;4.386;2023-10-13T14:01:17;10.73;;;6.35;;
22525;SDS011;11429;50.842;4.386;2023-10-13T14:03:44;10.30;;;5.72;;
22525;SDS011;11429;50.842;4.386;2023-10-13T14:08:56;13.77;;;6.38;;
22525;SDS011;11429;50.842;4.386;2023-10-13T14:11:25;10.68;;;5.93;;
22525;SDS011;11429;50.842;4.386;2023-10-13T14:14:04;8.27;;;5.85;;
22525;SDS011;11429;50.842;4.386;2023-10-13T14:16:37;13.60;;;6.00;;
22525;SDS011;11429;50.842;4.386;2023-10-13T14:19:10;12.45;;;6.40;;
22525;SDS011;11429;50.842;4.386;2023-10-13T14:21:37;9.32;;;5.88;;
22525;SDS011;11429;50.842;4.386;2023-10-13T14:24:03;13.65;;;6.70;;
22525;SDS011;11429;50.842;4.386;2023-10-13T14:29:03;12.63;;;6.30;;
22525;SDS011;11429;50.842;4.386;2023-10-13T14:31:31;13.43;;;6.10;;
22525;SDS011;11429;50.842;4.386;2023-10-13T14:33:57;11.32;;;6.07;;
22525;SDS011;11429;50.842;4.386;2023-10-13T14:36:23;11.43;;;6.40;;
22525;SDS011;11429;50.842;4.386;2023-10-13T14:38:53;12.20;;;6.30;;
22525;SDS011;11429;50.842;4.386;2023-10-13T14:41:20;18.30;;;6.70;;
22525;SDS011;11429;50.842;4.386;2023-10-13T14:43:46;11.38;;;6.55;;
22525;SDS011;11429;50.842;4.386;2023-10-13T14:46:16;14.82;;;6.25;;
22525;SDS011;11429;50.842;4.386;2023-10-13T14:48:43;12.40;;;6.28;;
22525;SDS011;11429;50.842;4.386;2023-10-13T14:51:12;13.65;;;6.50;;
22525;SDS011;11429;50.842;4.386;2023-10-13T14:53:41;14.38;;;6.28;;
22525;SDS011;11429;50.842;4.386;2023-10-13T14:56:11;15.52;;;5.72;;
22525;SDS011;11429;50.842;4.386;2023-10-13T14:58:41;12.13;;;6.07;;
22525;SDS011;11429;50.842;4.386;2023-10-13T15:01:14;16.23;;;6.38;;
22525;SDS011;11429;50.842;4.386;2023-10-13T15:03:44;14.35;;;5.38;;
22525;SDS011;11429;50.842;4.386;2023-10-13T15:06:17;12.52;;;6.10;;
22525;SDS011;11429;50.842;4.386;2023-10-13T15:08:50;12.88;;;6.45;;
22525;SDS011;11429;50.842;4.386;2023-10-13T15:11:19;14.48;;;6.80;;
22525;SDS011;11429;50.842;4.386;2023-10-13T15:13:46;13.27;;;6.03;;
22525;SDS011;11429;50.842;4.386;2023-10-13T15:16:19;12.90;;;6.25;;
22525;SDS011;11429;50.842;4.386;2023-10-13T15:18:49;12.32;;;6.30;;
22525;SDS011;11429;50.842;4.386;2023-10-13T15:21:26;12.20;;;6.30;;
22525;SDS011;11429;50.842;4.386;2023-10-13T15:24:16;13.15;;;5.85;;
22525;SDS011;11429;50.842;4.386;2023-10-13T15:26:42;14.35;;;6.57;;
22525;SDS011;11429;50.842;4.386;2023-10-13T15:31:42;11.68;;;5.88;;
22525;SDS011;11429;50.842;4.386;2023-10-13T15:34:26;12.90;;;6.13;;
22525;SDS011;11429;50.842;4.386;2023-10-13T15:36:52;12.95;;;6.72;;
22525;SDS011;11429;50.842;4.386;2023-10-13T15:39:20;13.48;;;6.07;;
22525;SDS011;11429;50.842;4.386;2023-10-13T15:41:50;16.42;;;6.20;;
22525;SDS011;11429;50.842;4.386;2023-10-13T15:44:23;10.63;;;5.70;;
22525;SDS011;11429;50.842;4.386;2023-10-13T15:46:53;12.73;;;6.20;;
22525;SDS011;11429;50.842;4.386;2023-10-13T15:49:20;11.35;;;6.05;;
22525;SDS011;11429;50.842;4.386;2023-10-13T15:51:46;10.70;;;5.97;;
22525;SDS011;11429;50.842;4.386;2023-10-13T15:54:12;13.07;;;5.68;;
22525;SDS011;11429;50.842;4.386;2023-10-13T15:56:42;13.73;;;6.47;;
22525;SDS011;11429;50.842;4.386;2023-10-13T15:59:12;12.50;;;6.35;;
22525;SDS011;11429;50.842;4.386;2023-10-13T16:01:38;10.20;;;6.30;;
22525;SDS011;11429;50.842;4.386;2023-10-13T16:04:06;10.07;;;6.20;;
22525;SDS011;11429;50.842;4.386;2023-10-13T16:06:42;12.13;;;6.40;;